sensor_id;sensor_type;location;lat;lon;timestamp;P1;durP1;ratioP1;P2;durP2;ratioP2
76801;SDS011;66403;50.832;10.950;2024-01-06T00:00:39;2.45;;;1.20;;
76801;SDS011;66403;50.832;10.950;2024-01-06T00:05:40;3.83;;;1.42;;
76801;SDS011;66403;50.832;10.950;2024-01-06T00:10:40;2.97;;;1.50;;
76801;SDS011;66403;50.832;10.950;2024-01-06T00:15:41;2.40;;;1.08;;
76801;SDS011;66403;50.832;10.950;2024-01-06T00:20:41;1.90;;;0.90;;
76801;SDS011;66403;50.832;10.950;2024-01-06T00:25:42;1.00;;;0.90;;
76801;SDS011;66403;50.832;10.950;2024-01-06T00:30:42;1.58;;;1.35;;
76801;SDS011;66403;50.832;10.950;2024-01-06T00:35:43;2.30;;;1.20;;
76801;SDS011;66403;50.832;10.950;2024-01-06T00:40:43;2.13;;;0.80;;
76801;SDS011;66403;50.832;10.950;2024-01-06T00:45:44;1.33;;;1.17;;
76801;SDS011;66403;50.832;10.950;2024-01-06T00:50:44;4.10;;;0.90;;
76801;SDS011;66403;50.832;10.950;2024-01-06T00:55:45;1.33;;;0.95;;
76801;SDS011;66403;50.832;10.950;2024-01-06T01:00:45;1.05;;;0.95;;
76801;SDS011;66403;50.832;10.950;2024-01-06T01:05:46;3.83;;;1.25;;
76801;SDS011;66403;50.832;10.950;2024-01-06T01:10:46;1.63;;;1.00;;
76801;SDS011;66403;50.832;10.950;2024-01-06T01:15:47;1.10;;;0.80;;
76801;SDS011;66403;50.832;10.950;2024-01-06T01:20:47;0.95;;;0.93;;
76801;SDS011;66403;50.832;10.950;2024-01-06T01:25:47;0.80;;;0.80;;
76801;SDS011;66403;50.832;10.950;2024-01-06T01:30:48;2.58;;;0.60;;
76801;SDS011;66403;50.832;10.950;2024-01-06T01:35:48;0.65;;;0.60;;
76801;SDS011;66403;50.832;10.950;2024-01-06T01:40:49;2.50;;;1.08;;
76801;SDS011;66403;50.832;10.950;2024-01-06T01:45:55;2.88;;;0.80;;
76801;SDS011;66403;50.832;10.950;2024-01-06T01:50:56;1.70;;;0.98;;
76801;SDS011;66403;50.832;10.950;2024-01-06T01:55:56;1.52;;;1.38;;
76801;SDS011;66403;50.832;10.950;2024-01-06T02:00:57;0.95;;;0.68;;
76801;SDS011;66403;50.832;10.950;2024-01-06T02:05:58;2.58;;;1.17;;
76801;SDS011;66403;50.832;10.950;2024-01-06T02:10:58;2.83;;;1.00;;
76801;SDS011;66403;50.832;10.950;2024-01-06T02:15:58;4.22;;;1.20;;
76801;SDS011;66403;50.832;10.950;2024-01-06T02:21:00;3.35;;;1.08;;
76801;SDS011;66403;50.832;10.950;2024-01-06T02:26:01;3.30;;;1.20;;
76801;SDS011;66403;50.832;10.950;2024-01-06T02:31:02;0.73;;;0.70;;
76801;SDS011;66403;50.832;10.950;2024-01-06T02:36:02;2.03;;;1.05;;
76801;SDS011;66403;50.832;10.950;2024-01-06T02:41:03;1.10;;;0.75;;
76801;SDS011;66403;50.832;10.950;2024-01-06T02:46:03;2.65;;;1.02;;
76801;SDS011;66403;50.832;10.950;2024-01-06T02:51:04;1.67;;;0.88;;
76801;SDS011;66403;50.832;10.950;2024-01-06T02:56:09;3.85;;;1.02;;
76801;SDS011;66403;50.832;10.950;2024-01-06T03:01:11;1.50;;;1.27;;
76801;SDS011;66403;50.832;10.950;2024-01-06T03:06:11;1.73;;;0.95;;
76801;SDS011;66403;50.832;10.950;2024-01-06T03:11:12;1.13;;;0.80;;
76801;SDS011;66403;50.832;10.950;2024-01-06T03:16:12;1.17;;;0.75;;
76801;SDS011;66403;50.832;10.950;2024-01-06T03:21:16;1.40;;;0.98;;
76801;SDS011;66403;50.832;10.950;2024-01-06T03:26:20;4.47;;;1.10;;
76801;SDS011;66403;50.832;10.950;2024-01-06T03:31:21;1.33;;;1.08;;
76801;SDS011;66403;50.832;10.950;2024-01-06T03:36:22;1.13;;;0.52;;
76801;SDS011;66403;50.832;10.950;2024-01-06T03:41:22;1.25;;;0.77;;
76801;SDS011;66403;50.832;10.950;2024-01-06T03:46:23;4.28;;;1.35;;
76801;SDS011;66403;50.832;10.950;2024-01-06T03:51:23;1.00;;;0.80;;
76801;SDS011;66403;50.832;10.950;2024-01-06T03:56:24;1.38;;;0.82;;
76801;SDS011;66403;50.832;10.950;2024-01-06T04:01:24;2.00;;;0.90;;
76801;SDS011;66403;50.832;10.950;2024-01-06T04:06:25;2.00;;;1.00;;
76801;SDS011;66403;50.832;10.950;2024-01-06T04:11:25;0.60;;;0.60;;
76801;SDS011;66403;50.832;10.950;2024-01-06T04:16:26;1.60;;;0.90;;
76801;SDS011;66403;50.832;10.950;2024-01-06T04:21:28;5.70;;;1.40;;
76801;SDS011;66403;50.832;10.950;2024-01-06T04:26:29;2.63;;;1.08;;
76801;SDS011;66403;50.832;10.950;2024-01-06T04:31:29;1.48;;;0.88;;
76801;SDS011;66403;50.832;10.950;2024-01-06T04:36:30;2.55;;;0.90;;
76801;SDS011;66403;50.832;10.950;2024-01-06T04:41:30;1.13;;;0.63;;
76801;SDS011;66403;50.832;10.950;2024-01-06T04:46:31;3.13;;;0.98;;
76801;SDS011;66403;50.832;10.950;2024-01-06T04:51:31;3.13;;;1.08;;
76801;SDS011;66403;50.832;10.950;2024-01-06T04:56:32;2.67;;;1.02;;
76801;SDS011;66403;50.832;10.950;2024-01-06T05:01:32;2.45;;;0.68;;
76801;SDS011;66403;50.832;10.950;2024-01-06T05:06:34;2.10;;;1.30;;
76801;SDS011;66403;50.832;10.950;2024-01-06T05:11:34;1.73;;;0.90;;
76801;SDS011;66403;50.832;10.950;2024-01-06T05:16:35;1.55;;;0.80;;
76801;SDS011;66403;50.832;10.950;2024-01-06T05:21:35;3.58;;;1.20;;
76801;SDS011;66403;50.832;10.950;2024-01-06T05:26:36;2.33;;;0.93;;
76801;SDS011;66403;50.832;10.950;2024-01-06T05:31:36;1.85;;;1.00;;
76801;SDS011;66403;50.832;10.950;2024-01-06T05:36:37;1.60;;;1.00;;
76801;SDS011;66403;50.832;10.950;2024-01-06T05:41:38;4.57;;;0.88;;
76801;SDS011;66403;50.832;10.950;2024-01-06T05:46:39;2.03;;;1.20;;
76801;SDS011;66403;50.832;10.950;2024-01-06T05:51:43;2.63;;;1.10;;
76801;SDS011;66403;50.832;10.950;2024-01-06T05:56:45;2.97;;;1.20;;
76801;SDS011;66403;50.832;10.950;2024-01-06T06:01:45;1.27;;;1.17;;
76801;SDS011;66403;50.832;10.950;2024-01-06T06:06:45;2.40;;;1.60;;
76801;SDS011;66403;50.832;10.950;2024-01-06T06:11:46;2.00;;;0.90;;
76801;SDS011;66403;50.832;10.950;2024-01-06T06:16:46;2.13;;;0.90;;
76801;SDS011;66403;50.832;10.950;2024-01-06T06:21:48;1.77;;;1.08;;
76801;SDS011;66403;50.832;10.950;2024-01-06T06:26:48;1.40;;;0.88;;
76801;SDS011;66403;50.832;10.950;2024-01-06T06:31:48;1.55;;;0.70;;
76801;SDS011;66403;50.832;10.950;2024-01-06T06:36:49;1.98;;;1.45;;
76801;SDS011;66403;50.832;10.950;2024-01-06T06:41:49;3.45;;;1.00;;
76801;SDS011;66403;50.832;10.950;2024-01-06T06:46:50;2.78;;;1.17;;
76801;SDS011;66403;50.832;10.950;2024-01-06T06:51:50;3.20;;;1.50;;
76801;SDS011;66403;50.832;10.950;2024-01-06T06:56:51;2.50;;;1.13;;
76801;SDS011;66403;50.832;10.950;2024-01-06T07:01:51;2.00;;;1.40;;
76801;SDS011;66403;50.832;10.950;2024-01-06T07:06:52;2.75;;;1.00;;
76801;SDS011;66403;50.832;10.950;2024-01-06T07:11:52;1.38;;;1.05;;
76801;SDS011;66403;50.832;10.950;2024-01-06T07:16:53;1.35;;;1.15;;
76801;SDS011;66403;50.832;10.950;2024-01-06T07:21:53;2.63;;;1.20;;
76801;SDS011;66403;50.832;10.950;2024-01-06T07:26:53;2.00;;;1.27;;
76801;SDS011;66403;50.832;10.950;2024-01-06T07:31:54;2.35;;;1.30;;
76801;SDS011;66403;50.832;10.950;2024-01-06T07:36:54;2.50;;;1.63;;
76801;SDS011;66403;50.832;10.950;2024-01-06T07:41:55;4.63;;;1.30;;
76801;SDS011;66403;50.832;10.950;2024-01-06T07:46:55;1.27;;;1.00;;
76801;SDS011;66403;50.832;10.950;2024-01-06T07:51:56;5.07;;;1.50;;
76801;SDS011;66403;50.832;10.950;2024-01-06T07:56:56;3.05;;;0.90;;
76801;SDS011;66403;50.832;10.950;2024-01-06T08:01:57;2.05;;;1.35;;
76801;SDS011;66403;50.832;10.950;2024-01-06T08:06:58;2.42;;;1.08;;
76801;SDS011;66403;50.832;10.950;2024-01-06T08:11:58;1.13;;;0.95;;
76801;SDS011;66403;50.832;10.950;2024-01-06T08:16:59;2.78;;;1.40;;
76801;SDS011;66403;50.832;10.950;2024-01-06T08:21:59;2.20;;;1.48;;
76801;SDS011;66403;50.832;10.950;2024-01-06T08:27:00;1.95;;;1.33;;
76801;SDS011;66403;50.832;10.950;2024-01-06T08:32:00;2.13;;;1.75;;
76801;SDS011;66403;50.832;10.950;2024-01-06T08:37:01;2.63;;;1.63;;
76801;SDS011;66403;50.832;10.950;2024-01-06T08:42:01;4.22;;;1.60;;
76801;SDS011;66403;50.832;10.950;2024-01-06T08:47:02;3.42;;;1.67;;
76801;SDS011;66403;50.832;10.950;2024-01-06T08:52:03;5.22;;;2.25;;
76801;SDS011;66403;50.832;10.950;2024-01-06T08:57:04;3.22;;;2.25;;
76801;SDS011;66403;50.832;10.950;2024-01-06T09:02:04;3.15;;;2.25;;
76801;SDS011;66403;50.832;10.950;2024-01-06T09:07:05;1.92;;;1.30;;
76801;SDS011;66403;50.832;10.950;2024-01-06T09:12:05;3.83;;;2.50;;
76801;SDS011;66403;50.832;10.950;2024-01-06T09:17:06;12.07;;;5.72;;
76801;SDS011;66403;50.832;10.950;2024-01-06T09:22:06;6.53;;;2.92;;
76801;SDS011;66403;50.832;10.950;2024-01-06T09:27:07;7.22;;;2.65;;
76801;SDS011;66403;50.832;10.950;2024-01-06T09:32:07;3.70;;;2.17;;
76801;SDS011;66403;50.832;10.950;2024-01-06T09:37:07;5.32;;;2.50;;
76801;SDS011;66403;50.832;10.950;2024-01-06T09:42:08;9.23;;;3.45;;
76801;SDS011;66403;50.832;10.950;2024-01-06T09:47:09;6.25;;;3.28;;
76801;SDS011;66403;50.832;10.950;2024-01-06T09:52:13;4.72;;;2.65;;
76801;SDS011;66403;50.832;10.950;2024-01-06T09:57:16;5.60;;;3.40;;
76801;SDS011;66403;50.832;10.950;2024-01-06T10:02:16;5.63;;;3.42;;
76801;SDS011;66403;50.832;10.950;2024-01-06T10:07:17;6.82;;;2.38;;
76801;SDS011;66403;50.832;10.950;2024-01-06T10:12:17;7.20;;;3.15;;
76801;SDS011;66403;50.832;10.950;2024-01-06T10:17:18;6.50;;;3.13;;
76801;SDS011;66403;50.832;10.950;2024-01-06T10:22:19;7.10;;;3.45;;
76801;SDS011;66403;50.832;10.950;2024-01-06T10:27:19;4.30;;;2.67;;
76801;SDS011;66403;50.832;10.950;2024-01-06T10:32:21;6.03;;;2.80;;
76801;SDS011;66403;50.832;10.950;2024-01-06T10:37:30;4.57;;;2.92;;
76801;SDS011;66403;50.832;10.950;2024-01-06T10:42:30;3.88;;;3.03;;
76801;SDS011;66403;50.832;10.950;2024-01-06T10:47:31;4.35;;;3.33;;
76801;SDS011;66403;50.832;10.950;2024-01-06T10:52:32;7.70;;;5.22;;
76801;SDS011;66403;50.832;10.950;2024-01-06T10:57:32;6.63;;;4.15;;
76801;SDS011;66403;50.832;10.950;2024-01-06T11:02:33;7.80;;;4.30;;
76801;SDS011;66403;50.832;10.950;2024-01-06T11:07:34;10.30;;;6.28;;
76801;SDS011;66403;50.832;10.950;2024-01-06T11:12:35;5.70;;;3.55;;
76801;SDS011;66403;50.832;10.950;2024-01-06T11:17:51;5.65;;;2.97;;
76801;SDS011;66403;50.832;10.950;2024-01-06T11:28:17;2.88;;;2.28;;
76801;SDS011;66403;50.832;10.950;2024-01-06T11:33:18;3.05;;;2.20;;
76801;SDS011;66403;50.832;10.950;2024-01-06T11:38:18;4.57;;;2.00;;
76801;SDS011;66403;50.832;10.950;2024-01-06T11:43:19;4.05;;;1.70;;
76801;SDS011;66403;50.832;10.950;2024-01-06T11:48:26;3.30;;;1.65;;
76801;SDS011;66403;50.832;10.950;2024-01-06T11:53:29;3.08;;;2.03;;
76801;SDS011;66403;50.832;10.950;2024-01-06T11:58:30;3.70;;;1.75;;
76801;SDS011;66403;50.832;10.950;2024-01-06T12:03:31;3.35;;;1.75;;
76801;SDS011;66403;50.832;10.950;2024-01-06T12:08:31;3.05;;;1.63;;
76801;SDS011;66403;50.832;10.950;2024-01-06T12:13:32;6.40;;;2.83;;
76801;SDS011;66403;50.832;10.950;2024-01-06T12:18:32;2.75;;;2.13;;
76801;SDS011;66403;50.832;10.950;2024-01-06T12:23:33;2.33;;;1.75;;
76801;SDS011;66403;50.832;10.950;2024-01-06T12:28:37;6.07;;;2.28;;
76801;SDS011;66403;50.832;10.950;2024-01-06T12:33:40;2.22;;;1.63;;
76801;SDS011;66403;50.832;10.950;2024-01-06T12:38:41;4.32;;;2.17;;
76801;SDS011;66403;50.832;10.950;2024-01-06T12:43:42;3.28;;;2.55;;
76801;SDS011;66403;50.832;10.950;2024-01-06T12:48:42;4.82;;;1.88;;
76801;SDS011;66403;50.832;10.950;2024-01-06T12:53:43;3.45;;;1.80;;
76801;SDS011;66403;50.832;10.950;2024-01-06T12:58:44;7.25;;;2.00;;
76801;SDS011;66403;50.832;10.950;2024-01-06T13:03:45;2.38;;;1.88;;
76801;SDS011;66403;50.832;10.950;2024-01-06T13:08:45;3.83;;;2.10;;
76801;SDS011;66403;50.832;10.950;2024-01-06T13:13:46;4.10;;;2.08;;
76801;SDS011;66403;50.832;10.950;2024-01-06T13:18:46;3.60;;;2.03;;
76801;SDS011;66403;50.832;10.950;2024-01-06T13:23:47;5.15;;;2.25;;
76801;SDS011;66403;50.832;10.950;2024-01-06T13:28:47;3.20;;;2.33;;
76801;SDS011;66403;50.832;10.950;2024-01-06T13:33:48;4.38;;;2.17;;
76801;SDS011;66403;50.832;10.950;2024-01-06T13:38:48;3.58;;;2.30;;
76801;SDS011;66403;50.832;10.950;2024-01-06T13:43:49;9.70;;;3.80;;
76801;SDS011;66403;50.832;10.950;2024-01-06T13:48:50;6.00;;;2.30;;
76801;SDS011;66403;50.832;10.950;2024-01-06T13:53:51;6.50;;;2.38;;
76801;SDS011;66403;50.832;10.950;2024-01-06T13:58:51;5.75;;;2.80;;
76801;SDS011;66403;50.832;10.950;2024-01-06T14:03:52;5.05;;;2.30;;
76801;SDS011;66403;50.832;10.950;2024-01-06T14:08:57;5.50;;;2.28;;
76801;SDS011;66403;50.832;10.950;2024-01-06T14:13:58;3.88;;;2.38;;
76801;SDS011;66403;50.832;10.950;2024-01-06T14:18:59;5.80;;;2.85;;
76801;SDS011;66403;50.832;10.950;2024-01-06T14:23:59;5.13;;;2.28;;
76801;SDS011;66403;50.832;10.950;2024-01-06T14:29:00;6.85;;;2.28;;
76801;SDS011;66403;50.832;10.950;2024-01-06T14:34:00;4.68;;;2.30;;
76801;SDS011;66403;50.832;10.950;2024-01-06T14:39:01;7.25;;;3.22;;
76801;SDS011;66403;50.832;10.950;2024-01-06T14:44:01;7.80;;;3.47;;
76801;SDS011;66403;50.832;10.950;2024-01-06T14:49:02;5.45;;;3.15;;
76801;SDS011;66403;50.832;10.950;2024-01-06T14:54:03;6.43;;;3.10;;
76801;SDS011;66403;50.832;10.950;2024-01-06T14:59:03;4.97;;;2.80;;
76801;SDS011;66403;50.832;10.950;2024-01-06T15:04:04;4.18;;;3.10;;
76801;SDS011;66403;50.832;10.950;2024-01-06T15:09:05;6.25;;;3.40;;
76801;SDS011;66403;50.832;10.950;2024-01-06T15:14:05;7.22;;;3.42;;
76801;SDS011;66403;50.832;10.950;2024-01-06T15:19:08;4.13;;;2.92;;
76801;SDS011;66403;50.832;10.950;2024-01-06T15:24:09;2.83;;;2.17;;
76801;SDS011;66403;50.832;10.950;2024-01-06T15:29:09;5.28;;;2.38;;
76801;SDS011;66403;50.832;10.950;2024-01-06T15:34:10;7.80;;;4.03;;
76801;SDS011;66403;50.832;10.950;2024-01-06T15:39:11;6.45;;;3.25;;
76801;SDS011;66403;50.832;10.950;2024-01-06T15:44:13;4.15;;;3.05;;
76801;SDS011;66403;50.832;10.950;2024-01-06T15:49:13;7.25;;;4.13;;
76801;SDS011;66403;50.832;10.950;2024-01-06T15:54:14;7.07;;;2.95;;
76801;SDS011;66403;50.832;10.950;2024-01-06T15:59:14;4.47;;;2.70;;
76801;SDS011;66403;50.832;10.950;2024-01-06T16:04:15;7.35;;;2.83;;
76801;SDS011;66403;50.832;10.950;2024-01-06T16:09:15;3.72;;;2.50;;
76801;SDS011;66403;50.832;10.950;2024-01-06T16:14:16;5.80;;;2.78;;
76801;SDS011;66403;50.832;10.950;2024-01-06T16:19:17;5.00;;;3.08;;
76801;SDS011;66403;50.832;10.950;2024-01-06T16:24:18;4.63;;;2.20;;
76801;SDS011;66403;50.832;10.950;2024-01-06T16:29:18;10.25;;;5.53;;
76801;SDS011;66403;50.832;10.950;2024-01-06T16:34:19;4.93;;;3.00;;
76801;SDS011;66403;50.832;10.950;2024-01-06T16:39:19;6.18;;;2.92;;
76801;SDS011;66403;50.832;10.950;2024-01-06T16:44:20;4.68;;;3.10;;
76801;SDS011;66403;50.832;10.950;2024-01-06T16:49:20;7.10;;;3.20;;
76801;SDS011;66403;50.832;10.950;2024-01-06T16:54:22;4.97;;;2.88;;
76801;SDS011;66403;50.832;10.950;2024-01-06T16:59:23;6.20;;;3.03;;
76801;SDS011;66403;50.832;10.950;2024-01-06T17:04:24;5.10;;;3.30;;
76801;SDS011;66403;50.832;10.950;2024-01-06T17:09:25;11.02;;;5.18;;
76801;SDS011;66403;50.832;10.950;2024-01-06T17:14:26;4.75;;;3.65;;
76801;SDS011;66403;50.832;10.950;2024-01-06T17:19:26;5.57;;;4.20;;
76801;SDS011;66403;50.832;10.950;2024-01-06T17:24:26;6.40;;;3.72;;
76801;SDS011;66403;50.832;10.950;2024-01-06T17:29:27;5.90;;;3.78;;
76801;SDS011;66403;50.832;10.950;2024-01-06T17:34:28;8.60;;;3.35;;
76801;SDS011;66403;50.832;10.950;2024-01-06T17:39:29;8.70;;;4.32;;
76801;SDS011;66403;50.832;10.950;2024-01-06T17:44:29;9.30;;;4.82;;
76801;SDS011;66403;50.832;10.950;2024-01-06T17:49:30;9.65;;;5.20;;
76801;SDS011;66403;50.832;10.950;2024-01-06T17:54:30;9.60;;;5.68;;
76801;SDS011;66403;50.832;10.950;2024-01-06T17:59:31;9.95;;;5.50;;
76801;SDS011;66403;50.832;10.950;2024-01-06T18:04:31;11.93;;;5.07;;
76801;SDS011;66403;50.832;10.950;2024-01-06T18:09:32;6.20;;;4.25;;
76801;SDS011;66403;50.832;10.950;2024-01-06T18:14:33;10.60;;;4.65;;
76801;SDS011;66403;50.832;10.950;2024-01-06T18:19:36;8.45;;;5.05;;
76801;SDS011;66403;50.832;10.950;2024-01-06T18:24:36;9.02;;;4.68;;
76801;SDS011;66403;50.832;10.950;2024-01-06T18:29:37;8.30;;;4.60;;
76801;SDS011;66403;50.832;10.950;2024-01-06T18:34:37;9.48;;;4.55;;
76801;SDS011;66403;50.832;10.950;2024-01-06T18:39:40;9.25;;;5.35;;
76801;SDS011;66403;50.832;10.950;2024-01-06T18:44:41;10.00;;;6.55;;
76801;SDS011;66403;50.832;10.950;2024-01-06T18:49:41;9.48;;;5.70;;
76801;SDS011;66403;50.832;10.950;2024-01-06T18:54:42;12.73;;;6.85;;
76801;SDS011;66403;50.832;10.950;2024-01-06T18:59:43;12.65;;;7.65;;
76801;SDS011;66403;50.832;10.950;2024-01-06T19:04:44;12.88;;;7.22;;
76801;SDS011;66403;50.832;10.950;2024-01-06T19:09:46;12.75;;;8.48;;
76801;SDS011;66403;50.832;10.950;2024-01-06T19:14:47;13.90;;;9.68;;
76801;SDS011;66403;50.832;10.950;2024-01-06T19:19:47;17.20;;;9.23;;
76801;SDS011;66403;50.832;10.950;2024-01-06T19:24:48;18.92;;;10.80;;
76801;SDS011;66403;50.832;10.950;2024-01-06T19:29:48;23.92;;;11.55;;
76801;SDS011;66403;50.832;10.950;2024-01-06T19:34:50;19.95;;;10.10;;
76801;SDS011;66403;50.832;10.950;2024-01-06T19:39:54;23.00;;;11.45;;
76801;SDS011;66403;50.832;10.950;2024-01-06T19:44:54;18.75;;;10.75;;
76801;SDS011;66403;50.832;10.950;2024-01-06T19:49:55;26.75;;;12.50;;
76801;SDS011;66403;50.832;10.950;2024-01-06T19:54:56;26.33;;;12.65;;
76801;SDS011;66403;50.832;10.950;2024-01-06T19:59:57;29.38;;;13.52;;
76801;SDS011;66403;50.832;10.950;2024-01-06T20:04:58;30.00;;;14.43;;
76801;SDS011;66403;50.832;10.950;2024-01-06T20:09:59;27.10;;;13.40;;
76801;SDS011;66403;50.832;10.950;2024-01-06T20:15:00;31.33;;;13.93;;
76801;SDS011;66403;50.832;10.950;2024-01-06T20:20:00;33.90;;;13.27;;
76801;SDS011;66403;50.832;10.950;2024-01-06T20:25:01;29.52;;;11.07;;
76801;SDS011;66403;50.832;10.950;2024-01-06T20:30:01;25.60;;;10.93;;
76801;SDS011;66403;50.832;10.950;2024-01-06T20:35:02;19.65;;;10.20;;
76801;SDS011;66403;50.832;10.950;2024-01-06T20:40:03;21.75;;;8.80;;
76801;SDS011;66403;50.832;10.950;2024-01-06T20:45:04;17.83;;;8.18;;
76801;SDS011;66403;50.832;10.950;2024-01-06T20:50:05;20.10;;;8.93;;
76801;SDS011;66403;50.832;10.950;2024-01-06T20:55:07;29.02;;;9.65;;
76801;SDS011;66403;50.832;10.950;2024-01-06T21:00:08;20.48;;;9.50;;
76801;SDS011;66403;50.832;10.950;2024-01-06T21:05:09;20.75;;;9.25;;
76801;SDS011;66403;50.832;10.950;2024-01-06T21:10:10;22.92;;;9.48;;
76801;SDS011;66403;50.832;10.950;2024-01-06T21:15:13;22.88;;;11.07;;
76801;SDS011;66403;50.832;10.950;2024-01-06T21:20:14;18.42;;;10.57;;
76801;SDS011;66403;50.832;10.950;2024-01-06T21:25:23;25.30;;;9.02;;
76801;SDS011;66403;50.832;10.950;2024-01-06T21:30:24;23.27;;;8.93;;
76801;SDS011;66403;50.832;10.950;2024-01-06T21:35:24;24.45;;;9.52;;
76801;SDS011;66403;50.832;10.950;2024-01-06T21:40:24;25.40;;;10.60;;
76801;SDS011;66403;50.832;10.950;2024-01-06T21:45:26;27.08;;;10.82;;
76801;SDS011;66403;50.832;10.950;2024-01-06T21:50:27;28.85;;;11.77;;
76801;SDS011;66403;50.832;10.950;2024-01-06T21:55:32;32.20;;;11.90;;
76801;SDS011;66403;50.832;10.950;2024-01-06T22:00:32;27.50;;;11.73;;
76801;SDS011;66403;50.832;10.950;2024-01-06T22:05:33;34.70;;;12.65;;
76801;SDS011;66403;50.832;10.950;2024-01-06T22:10:33;29.42;;;11.55;;
76801;SDS011;66403;50.832;10.950;2024-01-06T22:15:34;32.28;;;11.80;;
76801;SDS011;66403;50.832;10.950;2024-01-06T22:20:34;39.13;;;13.68;;
76801;SDS011;66403;50.832;10.950;2024-01-06T22:25:34;32.13;;;10.55;;
76801;SDS011;66403;50.832;10.950;2024-01-06T22:30:35;34.50;;;11.48;;
76801;SDS011;66403;50.832;10.950;2024-01-06T22:35:36;34.75;;;11.18;;
76801;SDS011;66403;50.832;10.950;2024-01-06T22:40:37;31.60;;;11.60;;
76801;SDS011;66403;50.832;10.950;2024-01-06T22:45:37;35.38;;;11.70;;
76801;SDS011;66403;50.832;10.950;2024-01-06T22:50:40;27.13;;;11.77;;
76801;SDS011;66403;50.832;10.950;2024-01-06T22:55:42;32.58;;;11.30;;
76801;SDS011;66403;50.832;10.950;2024-01-06T23:00:43;24.80;;;11.40;;
76801;SDS011;66403;50.832;10.950;2024-01-06T23:05:45;29.35;;;12.05;;
76801;SDS011;66403;50.832;10.950;2024-01-06T23:10:47;34.38;;;12.10;;
76801;SDS011;66403;50.832;10.950;2024-01-06T23:15:48;26.70;;;10.68;;
76801;SDS011;66403;50.832;10.950;2024-01-06T23:20:51;25.70;;;9.65;;
76801;SDS011;66403;50.832;10.950;2024-01-06T23:25:51;29.02;;;10.57;;
76801;SDS011;66403;50.832;10.950;2024-01-06T23:30:52;24.05;;;9.45;;
76801;SDS011;66403;50.832;10.950;2024-01-06T23:35:52;24.52;;;9.38;;
76801;SDS011;66403;50.832;10.950;2024-01-06T23:40:53;25.88;;;9.98;;
76801;SDS011;66403;50.832;10.950;2024-01-06T23:45:53;31.27;;;10.23;;
76801;SDS011;66403;50.832;10.950;2024-01-06T23:50:54;27.10;;;10.48;;
76801;SDS011;66403;50.832;10.950;2024-01-06T23:55:54;18.30;;;9.20;;
